Dunkirk, NY

3:14 AM EST on January 26, 2015 (GMT -0500)
Town of Pomfret | Change Station
CLOSE
Current Station
Personal Weather Station
Location: Fredonia, NY
Elevation: 846 ft
Nearby Weather Stations

Elev 846 ft 42.42 °N, 79.35 °W | Updated 3 minutes ago

Overcast
Overcast
12.9 °F
Feels Like 4 °F
N
5.8
Wind Variable Wind from North

Today
High -- | Low -- °F
--% Chance of Precip.
Yesterday
High -- | Low -- °F
Precip. -- in
7:37 AM 5:23 PM
Waxing Crescent, 40% visible
Pressure 29.97 in
Visibility 10.0 miles
Clouds Overcast 10000 ft
Windchill 4 °F
Dew Point -6 °F
Humidity 41%
Rainfall 0.00 in
Snow Depth Not available.
UV 0 out of 12
Pollen .10 out of 12
Air Quality Not available.
Flu Activity Not available.
METAR KDKK 260753Z AUTO 05011KT 10SM OVC100 M10/M14 A2993 RMK AO2 SLP149 T11001144

More Conditions Fewer Conditions

Pressure 29.97 in
Visibility 10.0 miles
Clouds Overcast 10000 ft
Windchill 4 °F
Dew Point -6 °F
Humidity 41%
Rainfall 0.00 in
Snow Depth Not available.
UV 0 out of 12
Pollen .10 out of 12
Air Quality Not available.
Flu Activity Not available.
METAR KDKK 260753Z AUTO 05011KT 10SM OVC100 M10/M14 A2993 RMK AO2 SLP149 T11001144

More Conditions Fewer Conditions

10-Day Weather Forecast

Almanac

Astronomy

Jan. 26, 2015 Rise Set
Actual Time
Civil Twilight
Nautical Twilight
Astronomical Twilight
Moon
Length of Visible Light
Length of Day
Tomorrow will be .
, % of the Moon is Illuminated

Today's Extremes

State Highs State Lows

Community

WunderPhotos

Upload Photos

1,790,163 photos uploaded!

WunderBlogs® & News

Nearby

Air Quality

  Air Quality AQ Index Pollutant
Not available.

Snow Depth

Station Depth Elevation

Earthquake Activity

City Distance Mag. Time & Date
Minimum magnitude displayed is 2.5.

Coastal Water Temperatures

Place Temperature

Nearby Weather Stations